createdAt,value
2022-08-26T00:00:53.770Z,7.20
2022-08-26T00:03:23.923Z,7.78
2022-08-26T00:05:52.030Z,7.50
2022-08-26T00:08:21.619Z,6.78
2022-08-26T00:15:48.924Z,6.95
2022-08-26T00:18:22.293Z,7.35
2022-08-26T00:20:51.737Z,7.32
2022-08-26T00:23:20.797Z,6.75
2022-08-26T00:25:53.747Z,7.50
2022-08-26T00:30:51.731Z,6.80
2022-08-26T00:33:21.315Z,7.82
2022-08-26T00:35:50.050Z,7.07
2022-08-26T00:38:22.887Z,7.35
2022-08-26T00:40:54.289Z,6.53
2022-08-26T00:43:24.647Z,6.35
2022-08-26T00:46:06.851Z,6.15
2022-08-26T00:48:38.146Z,6.38
2022-08-26T00:51:15.684Z,6.60
2022-08-26T00:53:54.215Z,6.68
2022-08-26T00:56:33.501Z,6.63
2022-08-26T00:59:05.600Z,6.22
2022-08-26T01:01:34.954Z,5.97
2022-08-26T01:04:03.338Z,6.68
2022-08-26T01:06:31.755Z,6.78
2022-08-26T01:09:00.461Z,6.30
2022-08-26T01:11:28.821Z,6.78
2022-08-26T01:14:00.331Z,6.95
2022-08-26T01:16:33.543Z,6.90
2022-08-26T01:19:10.777Z,7.47
2022-08-26T01:21:50.198Z,7.15
2022-08-26T01:24:19.724Z,6.90
2022-08-26T01:26:49.112Z,6.88
2022-08-26T01:31:55.720Z,7.05
2022-08-26T01:34:30.822Z,7.82
2022-08-26T01:37:14.176Z,7.93
2022-08-26T01:39:47.990Z,7.90
2022-08-26T01:42:19.397Z,7.63
2022-08-26T01:45:18.805Z,7.57
2022-08-26T01:47:57.118Z,8.13
2022-08-26T01:50:35.869Z,7.85
2022-08-26T01:53:10.590Z,8.57
2022-08-26T01:55:42.922Z,8.10
2022-08-26T01:58:18.176Z,9.20
2022-08-26T02:00:48.035Z,9.80
2022-08-26T02:03:22.051Z,8.55
2022-08-26T02:05:55.736Z,8.88
2022-08-26T02:08:48.199Z,8.55
2022-08-26T02:11:30.047Z,10.13
2022-08-26T02:14:04.205Z,8.93
2022-08-26T02:16:38.889Z,8.30
2022-08-26T02:19:17.464Z,9.45
2022-08-26T02:22:08.570Z,10.05
2022-08-26T02:25:16.435Z,8.52
2022-08-26T02:27:49.272Z,9.45
2022-08-26T02:30:22.469Z,9.65
2022-08-26T02:32:52.520Z,9.02
2022-08-26T02:35:22.639Z,9.65
2022-08-26T02:37:52.822Z,10.35
2022-08-26T02:40:26.503Z,9.70
2022-08-26T02:42:57.087Z,10.02
2022-08-26T02:45:28.904Z,10.82
2022-08-26T02:47:59.694Z,9.70
2022-08-26T02:50:29.114Z,9.00
2022-08-26T02:52:57.978Z,9.57
2022-08-26T02:55:27.084Z,9.40
2022-08-26T02:57:56.263Z,10.00
2022-08-26T03:00:25.002Z,9.93
2022-08-26T03:02:54.760Z,9.55
2022-08-26T03:05:24.179Z,9.38
2022-08-26T03:07:53.431Z,9.23
2022-08-26T03:10:23.179Z,10.43
2022-08-26T03:12:55.344Z,10.05
2022-08-26T03:15:24.956Z,9.52
2022-08-26T03:17:53.917Z,9.60
2022-08-26T03:20:26.004Z,11.05
2022-08-26T03:22:54.122Z,9.15
2022-08-26T03:25:26.070Z,9.95
2022-08-26T03:27:54.456Z,10.02
2022-08-26T03:30:45.449Z,9.40
2022-08-26T03:33:14.853Z,9.82
2022-08-26T03:35:45.600Z,9.85
2022-08-26T03:38:14.277Z,9.40
2022-08-26T03:40:44.119Z,11.88
2022-08-26T03:43:12.958Z,9.27
2022-08-26T03:45:42.635Z,9.25
2022-08-26T03:48:11.752Z,9.77
2022-08-26T03:53:12.850Z,9.07
2022-08-26T03:55:43.116Z,9.75
2022-08-26T03:58:11.696Z,9.98
2022-08-26T04:00:40.009Z,9.27
2022-08-26T04:03:09.925Z,11.27
2022-08-26T04:05:38.617Z,10.27
2022-08-26T04:08:07.094Z,9.55
2022-08-26T04:10:38.724Z,9.48
2022-08-26T04:13:07.145Z,10.60
2022-08-26T04:15:35.562Z,10.35
2022-08-26T04:18:04.810Z,9.75
2022-08-26T04:20:33.060Z,10.40
2022-08-26T04:23:01.216Z,11.07
2022-08-26T04:25:29.874Z,9.55
2022-08-26T04:27:57.990Z,9.40
2022-08-26T04:30:26.432Z,9.75
2022-08-26T04:32:54.915Z,9.20
2022-08-26T04:35:25.974Z,9.68
2022-08-26T04:37:54.503Z,10.13
2022-08-26T04:40:23.588Z,9.23
2022-08-26T04:42:51.805Z,10.55
2022-08-26T04:45:22.593Z,9.68
2022-08-26T04:47:56.754Z,10.80
2022-08-26T04:50:26.561Z,10.45
2022-08-26T04:52:55.786Z,10.32
2022-08-26T04:55:38.461Z,9.23
2022-08-26T04:58:11.591Z,10.35
2022-08-26T05:00:39.879Z,9.32
2022-08-26T05:03:10.482Z,9.52
2022-08-26T05:05:45.603Z,9.93
2022-08-26T05:08:15.558Z,10.07
2022-08-26T05:10:55.062Z,9.48
2022-08-26T05:13:29.631Z,9.48
2022-08-26T05:16:00.024Z,9.98
2022-08-26T05:18:30.663Z,10.00
2022-08-26T05:21:01.592Z,10.15
2022-08-26T05:23:32.398Z,9.45
2022-08-26T05:26:01.572Z,9.90
2022-08-26T05:28:33.260Z,10.98
2022-08-26T05:31:02.384Z,9.25
2022-08-26T05:33:30.601Z,10.35
2022-08-26T05:36:08.187Z,10.27
2022-08-26T05:38:39.339Z,9.02
2022-08-26T05:41:16.733Z,9.45
2022-08-26T05:43:45.428Z,9.68
2022-08-26T05:46:13.803Z,9.50
2022-08-26T05:51:13.384Z,9.13
2022-08-26T05:53:43.933Z,8.15
2022-08-26T05:56:26.428Z,9.23
2022-08-26T05:58:56.272Z,8.73
2022-08-26T06:01:29.042Z,9.35
2022-08-26T06:04:01.594Z,8.88
2022-08-26T06:06:36.510Z,8.65
2022-08-26T06:09:10.861Z,8.68
2022-08-26T06:11:40.599Z,8.27
2022-08-26T06:14:08.910Z,8.88
2022-08-26T06:16:40.906Z,8.00
2022-08-26T06:19:11.521Z,9.02
2022-08-26T06:21:42.510Z,8.48
2022-08-26T06:24:32.236Z,9.45
2022-08-26T06:27:03.305Z,8.88
2022-08-26T06:29:34.384Z,9.57
2022-08-26T06:32:05.492Z,7.68
2022-08-26T06:34:34.318Z,8.75
2022-08-26T06:37:03.629Z,8.63
2022-08-26T06:39:32.252Z,7.60
2022-08-26T06:42:06.629Z,7.68
2022-08-26T06:44:36.731Z,7.75
2022-08-26T06:47:05.267Z,8.20
2022-08-26T06:49:33.522Z,7.47
2022-08-26T06:52:01.589Z,9.00
2022-08-26T06:54:32.754Z,8.27
2022-08-26T06:57:01.479Z,7.00
2022-08-26T06:59:31.461Z,8.07
2022-08-26T07:02:00.011Z,7.72
2022-08-26T07:04:28.476Z,8.35
2022-08-26T07:06:57.080Z,8.13
2022-08-26T07:09:30.744Z,7.53
2022-08-26T07:11:59.556Z,6.88
2022-08-26T07:14:28.307Z,7.90
2022-08-26T07:16:56.471Z,7.22
2022-08-26T07:19:30.167Z,6.72
2022-08-26T07:22:05.382Z,6.65
2022-08-26T07:24:40.661Z,6.00
2022-08-26T07:27:15.259Z,6.72
2022-08-26T07:29:45.606Z,6.13
2022-08-26T07:32:16.317Z,5.97
2022-08-26T07:34:44.578Z,6.55
2022-08-26T07:37:12.855Z,6.65
2022-08-26T07:39:44.752Z,6.22
2022-08-26T07:42:15.250Z,6.30
2022-08-26T07:44:44.624Z,7.55
2022-08-26T07:47:25.115Z,6.43
2022-08-26T07:49:57.852Z,6.50
2022-08-26T07:52:28.435Z,6.15
2022-08-26T07:54:59.648Z,6.18
2022-08-26T07:57:29.244Z,5.75
2022-08-26T07:59:58.682Z,6.43
2022-08-26T08:02:29.644Z,5.10
2022-08-26T08:05:00.266Z,6.18
2022-08-26T08:07:44.590Z,5.15
2022-08-26T08:10:17.743Z,5.75
2022-08-26T08:12:48.180Z,5.57
2022-08-26T08:15:18.313Z,5.05
2022-08-26T08:17:50.386Z,5.47
2022-08-26T08:20:20.595Z,5.47
2022-08-26T08:22:50.435Z,5.30
2022-08-26T08:25:20.228Z,5.30
2022-08-26T08:27:51.158Z,4.68
2022-08-26T08:30:22.686Z,6.28
2022-08-26T08:32:52.417Z,5.60
2022-08-26T08:35:22.940Z,5.57
2022-08-26T08:37:54.646Z,5.53
2022-08-26T08:40:26.591Z,5.07
2022-08-26T08:43:10.221Z,5.57
2022-08-26T08:45:44.040Z,5.38
2022-08-26T08:48:32.116Z,5.95
2022-08-26T08:51:28.122Z,4.78
2022-08-26T08:53:57.252Z,4.82
2022-08-26T08:56:40.755Z,5.07
2022-08-26T08:59:20.004Z,4.60
2022-08-26T09:02:06.725Z,4.97
2022-08-26T09:05:20.764Z,4.72
2022-08-26T09:08:03.063Z,5.40
2022-08-26T09:10:52.957Z,5.15
2022-08-26T09:13:25.442Z,4.88
2022-08-26T09:16:03.644Z,5.07
2022-08-26T09:18:41.127Z,4.38
2022-08-26T09:21:17.924Z,4.68
2022-08-26T09:23:49.700Z,4.55
2022-08-26T09:26:21.464Z,5.07
2022-08-26T09:29:03.997Z,5.28
2022-08-26T09:31:38.012Z,4.57
2022-08-26T09:34:12.753Z,5.13
2022-08-26T09:36:48.932Z,5.47
2022-08-26T09:39:37.752Z,5.05
2022-08-26T09:42:09.608Z,5.30
2022-08-26T09:44:59.817Z,4.63
2022-08-26T09:48:01.495Z,4.10
2022-08-26T09:50:34.026Z,4.75
2022-08-26T09:53:28.573Z,4.45
2022-08-26T09:56:28.098Z,4.90
2022-08-26T09:58:57.960Z,4.95
2022-08-26T10:01:30.878Z,4.53
2022-08-26T10:04:14.444Z,5.20
2022-08-26T10:07:04.111Z,4.25
2022-08-26T10:09:36.817Z,5.00
2022-08-26T10:12:12.924Z,4.85
2022-08-26T10:14:52.491Z,4.70
2022-08-26T10:17:37.076Z,4.57
2022-08-26T10:20:23.654Z,5.05
2022-08-26T10:25:46.740Z,5.32
2022-08-26T10:28:26.036Z,4.70
2022-08-26T10:31:01.918Z,5.25
2022-08-26T10:33:31.047Z,4.45
2022-08-26T10:36:12.264Z,5.88
2022-08-26T10:38:45.434Z,5.10
2022-08-26T10:41:20.840Z,4.75
2022-08-26T10:43:59.964Z,5.05
2022-08-26T10:46:40.156Z,5.03
2022-08-26T10:49:13.726Z,4.70
2022-08-26T10:52:16.591Z,5.00
2022-08-26T10:54:58.642Z,5.43
2022-08-26T10:57:45.959Z,4.93
2022-08-26T11:00:40.060Z,8.63
2022-08-26T11:03:46.632Z,8.07
2022-08-26T11:06:26.379Z,6.43
2022-08-26T11:09:01.538Z,5.63
2022-08-26T11:11:46.958Z,5.32
2022-08-26T11:14:28.511Z,4.95
2022-08-26T11:17:00.033Z,4.75
2022-08-26T11:19:50.587Z,4.80
2022-08-26T11:22:47.580Z,5.50
2022-08-26T11:25:18.453Z,5.07
2022-08-26T11:27:52.474Z,5.10
2022-08-26T11:30:21.837Z,5.90
2022-08-26T11:32:55.569Z,5.25
2022-08-26T11:35:24.677Z,4.90
2022-08-26T11:38:04.380Z,5.18
2022-08-26T11:40:40.968Z,5.50
2022-08-26T11:43:20.133Z,5.18
2022-08-26T11:45:59.897Z,5.53
2022-08-26T11:48:31.273Z,5.15
2022-08-26T11:51:05.615Z,5.18
2022-08-26T11:53:47.161Z,5.28
2022-08-26T11:56:32.826Z,5.07
2022-08-26T11:59:04.321Z,4.80
2022-08-26T12:01:37.206Z,5.32
2022-08-26T12:04:08.429Z,5.45
2022-08-26T12:06:45.931Z,5.82
2022-08-26T12:09:22.192Z,5.35
2022-08-26T12:11:51.068Z,5.45
2022-08-26T12:14:23.747Z,4.53
2022-08-26T12:16:56.851Z,4.95
2022-08-26T12:19:35.446Z,5.45
2022-08-26T12:22:26.250Z,4.93
2022-08-26T12:25:01.693Z,4.82
2022-08-26T12:27:40.323Z,5.00
2022-08-26T12:30:12.221Z,5.50
2022-08-26T12:32:57.452Z,5.80
2022-08-26T12:35:29.611Z,4.70
2022-08-26T12:37:59.029Z,5.60
2022-08-26T12:40:33.219Z,4.88
2022-08-26T12:43:03.891Z,5.38
2022-08-26T12:45:35.457Z,4.97
2022-08-26T12:48:10.441Z,4.85
2022-08-26T12:50:46.436Z,5.22
2022-08-26T12:53:26.845Z,5.18
2022-08-26T12:56:04.905Z,5.32
2022-08-26T12:58:35.778Z,5.13
2022-08-26T13:01:04.918Z,5.00
2022-08-26T13:03:39.578Z,5.22
2022-08-26T13:06:17.033Z,5.30
2022-08-26T13:08:48.902Z,4.70
2022-08-26T13:11:21.278Z,5.40
2022-08-26T13:14:12.086Z,6.22
2022-08-26T13:16:47.486Z,5.05
2022-08-26T13:19:22.335Z,5.20
2022-08-26T13:21:56.757Z,4.85
2022-08-26T13:24:57.429Z,4.70
2022-08-26T13:27:27.597Z,5.80
2022-08-26T13:29:58.011Z,5.10
2022-08-26T13:32:28.410Z,6.53
2022-08-26T13:34:58.286Z,5.45
2022-08-26T13:37:34.418Z,4.97
2022-08-26T13:40:08.459Z,4.75
2022-08-26T13:42:37.399Z,5.10
2022-08-26T13:45:18.818Z,5.75
2022-08-26T13:48:05.515Z,4.45
2022-08-26T13:50:35.550Z,4.75
2022-08-26T13:53:04.052Z,4.75
2022-08-26T13:55:32.089Z,5.10
2022-08-26T13:58:00.489Z,5.30
2022-08-26T14:02:59.116Z,4.72
2022-08-26T14:05:28.784Z,4.80
2022-08-26T14:07:57.935Z,5.00
2022-08-26T14:10:31.150Z,4.57
2022-08-26T14:12:59.864Z,4.90
2022-08-26T14:15:29.178Z,5.47
2022-08-26T14:17:57.410Z,4.65
2022-08-26T14:20:30.754Z,4.57
2022-08-26T14:23:15.689Z,4.53
2022-08-26T14:25:46.049Z,4.45
2022-08-26T14:28:15.286Z,4.55
2022-08-26T14:30:47.349Z,4.68
2022-08-26T14:33:18.384Z,4.20
2022-08-26T14:35:49.159Z,4.45
2022-08-26T14:38:20.336Z,5.10
2022-08-26T14:40:49.412Z,4.93
2022-08-26T14:43:18.317Z,5.00
2022-08-26T14:45:49.145Z,4.20
2022-08-26T14:48:22.730Z,4.10
2022-08-26T14:50:54.059Z,4.30
2022-08-26T14:53:45.637Z,4.68
2022-08-26T14:56:16.814Z,4.45
2022-08-26T14:58:48.794Z,4.88
2022-08-26T15:01:40.626Z,4.15
2022-08-26T15:04:41.075Z,4.53
2022-08-26T15:07:12.654Z,4.32
2022-08-26T15:09:44.776Z,4.18
2022-08-26T15:12:16.334Z,3.95
2022-08-26T15:14:51.919Z,4.45
2022-08-26T15:17:25.348Z,5.03
2022-08-26T15:19:59.265Z,4.47
2022-08-26T15:22:40.654Z,4.45
2022-08-26T15:25:09.957Z,4.85
2022-08-26T15:27:42.831Z,4.78
2022-08-26T15:30:12.763Z,4.90
2022-08-26T15:32:42.270Z,4.82
2022-08-26T15:35:10.374Z,4.40
2022-08-26T15:37:40.380Z,4.82
2022-08-26T15:40:10.276Z,4.03
2022-08-26T15:42:39.439Z,4.18
2022-08-26T15:45:08.528Z,4.65
2022-08-26T15:47:58.140Z,4.00
2022-08-26T15:50:26.534Z,4.78
2022-08-26T15:52:56.226Z,4.20
2022-08-26T15:55:27.042Z,4.00
2022-08-26T15:57:57.976Z,4.47
2022-08-26T16:00:28.274Z,3.95
2022-08-26T16:03:02.675Z,4.20
2022-08-26T16:05:37.311Z,3.95
2022-08-26T16:08:16.733Z,4.13
2022-08-26T16:10:51.853Z,4.13
2022-08-26T16:13:24.081Z,4.47
2022-08-26T16:15:59.833Z,4.60
2022-08-26T16:18:30.103Z,4.72
2022-08-26T16:21:13.773Z,4.22
2022-08-26T16:23:45.659Z,4.38
2022-08-26T16:26:19.823Z,4.88
2022-08-26T16:28:48.586Z,4.57
2022-08-26T16:31:22.210Z,4.25
2022-08-26T16:33:53.213Z,4.47
2022-08-26T16:36:24.593Z,4.50
2022-08-26T16:38:57.323Z,5.37
2022-08-26T16:41:34.720Z,4.50
2022-08-26T16:44:05.598Z,4.95
2022-08-26T16:46:37.291Z,4.72
2022-08-26T16:49:07.574Z,4.68
2022-08-26T16:51:38.321Z,4.70
2022-08-26T16:54:10.561Z,4.60
2022-08-26T16:56:45.862Z,4.38
2022-08-26T16:59:21.207Z,4.80
2022-08-26T17:01:56.208Z,4.78
2022-08-26T17:04:29.002Z,4.57
2022-08-26T17:07:02.751Z,4.50
2022-08-26T17:09:37.304Z,4.57
2022-08-26T17:12:12.076Z,4.57
2022-08-26T17:14:42.652Z,4.80
2022-08-26T17:17:17.069Z,4.78
2022-08-26T17:19:48.017Z,4.45
2022-08-26T17:22:17.875Z,5.03
2022-08-26T17:24:50.252Z,4.93
2022-08-26T17:27:22.783Z,4.50
2022-08-26T17:29:54.755Z,4.57
2022-08-26T17:32:25.023Z,4.68
2022-08-26T17:34:54.323Z,4.22
2022-08-26T17:37:24.406Z,4.63
2022-08-26T17:39:54.701Z,4.53
2022-08-26T17:42:31.431Z,4.68
2022-08-26T17:45:05.262Z,4.43
2022-08-26T17:47:39.383Z,4.25
2022-08-26T17:50:15.975Z,3.78
2022-08-26T17:52:47.214Z,4.38
2022-08-26T17:55:18.184Z,4.63
2022-08-26T17:57:53.584Z,4.47
2022-08-26T18:00:27.045Z,4.32
2022-08-26T18:03:00.038Z,3.90
2022-08-26T18:05:32.176Z,4.10
2022-08-26T18:08:04.475Z,4.28
2022-08-26T18:10:41.549Z,3.72
2022-08-26T18:13:12.058Z,4.22
2022-08-26T18:15:46.119Z,4.38
2022-08-26T18:18:16.369Z,4.20
2022-08-26T18:20:46.229Z,4.72
2022-08-26T18:25:56.309Z,4.40
2022-08-26T18:28:25.235Z,4.55
2022-08-26T18:30:54.157Z,4.10
2022-08-26T18:33:26.663Z,4.43
2022-08-26T18:35:59.046Z,3.88
2022-08-26T18:38:29.036Z,3.60
2022-08-26T18:41:01.002Z,3.75
2022-08-26T18:43:29.793Z,3.53
2022-08-26T18:46:09.869Z,3.60
2022-08-26T18:48:40.661Z,3.60
2022-08-26T18:51:16.369Z,3.65
2022-08-26T18:53:54.159Z,4.65
2022-08-26T18:56:26.095Z,5.03
2022-08-26T18:59:02.182Z,3.50
2022-08-26T19:01:34.780Z,3.35
2022-08-26T19:04:05.674Z,3.33
2022-08-26T19:06:36.021Z,3.50
2022-08-26T19:09:09.338Z,3.78
2022-08-26T19:14:20.637Z,3.33
2022-08-26T19:16:53.785Z,3.22
2022-08-26T19:19:24.449Z,2.97
2022-08-26T19:21:53.535Z,3.10
2022-08-26T19:24:22.986Z,3.03
2022-08-26T19:27:00.866Z,4.00
2022-08-26T19:29:34.781Z,3.60
2022-08-26T19:32:07.766Z,3.78
2022-08-26T19:34:36.944Z,3.63
2022-08-26T19:37:07.008Z,3.85
2022-08-26T19:39:38.593Z,3.45
2022-08-26T19:42:08.053Z,3.70
2022-08-26T19:44:56.307Z,3.60
2022-08-26T19:47:26.959Z,3.45
2022-08-26T19:49:59.842Z,4.05
2022-08-26T19:52:36.852Z,3.50
2022-08-26T19:55:09.578Z,3.47
2022-08-26T19:57:40.556Z,3.55
2022-08-26T20:00:15.445Z,2.95
2022-08-26T20:02:45.855Z,3.75
2022-08-26T20:05:16.695Z,3.38
2022-08-26T20:07:45.455Z,3.67
2022-08-26T20:10:15.638Z,4.10
2022-08-26T20:12:46.700Z,3.33
2022-08-26T20:15:20.468Z,3.63
2022-08-26T20:17:51.052Z,3.40
2022-08-26T20:20:39.194Z,3.35
2022-08-26T20:23:09.767Z,3.38
2022-08-26T20:25:38.319Z,3.60
2022-08-26T20:28:06.404Z,3.40
2022-08-26T20:30:34.536Z,3.60
2022-08-26T20:33:03.112Z,3.60
2022-08-26T20:35:31.174Z,3.50
2022-08-26T20:37:59.639Z,3.80
2022-08-26T20:40:29.716Z,3.70
2022-08-26T20:42:59.175Z,4.13
2022-08-26T20:45:27.342Z,4.10
2022-08-26T20:47:55.778Z,4.30
2022-08-26T20:50:24.454Z,4.20
2022-08-26T20:53:10.773Z,4.82
2022-08-26T20:55:39.913Z,4.25
2022-08-26T20:58:08.281Z,4.18
2022-08-26T21:00:38.763Z,3.80
2022-08-26T21:03:07.963Z,4.13
2022-08-26T21:05:36.307Z,4.38
2022-08-26T21:08:04.816Z,4.00
2022-08-26T21:10:34.169Z,4.75
2022-08-26T21:13:02.384Z,4.45
2022-08-26T21:15:30.619Z,4.43
2022-08-26T21:18:00.986Z,4.82
2022-08-26T21:23:12.207Z,4.07
2022-08-26T21:25:45.933Z,4.75
2022-08-26T21:28:14.942Z,4.72
2022-08-26T21:30:44.331Z,4.43
2022-08-26T21:35:44.796Z,4.07
2022-08-26T21:38:14.082Z,4.65
2022-08-26T21:40:42.923Z,4.60
2022-08-26T21:43:13.134Z,4.47
2022-08-26T21:45:57.123Z,4.28
2022-08-26T21:48:29.593Z,5.07
2022-08-26T21:51:05.779Z,5.25
2022-08-26T21:53:34.428Z,4.22
2022-08-26T21:56:16.478Z,4.50
2022-08-26T21:58:52.370Z,5.20
2022-08-26T22:01:24.273Z,4.63
2022-08-26T22:03:55.916Z,4.47
2022-08-26T22:06:28.419Z,4.50
2022-08-26T22:08:57.401Z,4.78
2022-08-26T22:11:28.416Z,4.80
2022-08-26T22:13:57.232Z,4.78
2022-08-26T22:16:28.990Z,4.47
2022-08-26T22:18:58.845Z,4.55
2022-08-26T22:21:31.613Z,4.75
2022-08-26T22:24:00.841Z,4.95
2022-08-26T22:26:34.150Z,4.88
2022-08-26T22:29:07.282Z,4.60
2022-08-26T22:31:37.855Z,4.47
2022-08-26T22:34:10.919Z,5.60
2022-08-26T22:36:44.180Z,4.88
2022-08-26T22:39:14.609Z,4.65
2022-08-26T22:41:45.733Z,5.63
2022-08-26T22:44:13.881Z,5.10
2022-08-26T22:46:44.166Z,4.82
2022-08-26T22:49:17.029Z,4.75
2022-08-26T22:51:47.763Z,5.03
2022-08-26T22:54:17.524Z,5.13
2022-08-26T22:56:46.709Z,4.50
2022-08-26T22:59:17.388Z,4.80
2022-08-26T23:01:48.170Z,5.00
2022-08-26T23:04:19.089Z,4.80
2022-08-26T23:06:50.476Z,4.45
2022-08-26T23:09:19.849Z,4.90
2022-08-26T23:11:51.881Z,4.93
2022-08-26T23:14:20.781Z,4.70
2022-08-26T23:16:50.398Z,4.90
2022-08-26T23:19:23.616Z,4.72
2022-08-26T23:21:53.750Z,4.43
2022-08-26T23:24:23.710Z,5.07
2022-08-26T23:26:52.837Z,4.72
2022-08-26T23:29:21.858Z,4.18
2022-08-26T23:31:50.933Z,5.57
2022-08-26T23:34:42.349Z,4.53
2022-08-26T23:37:10.796Z,4.90
2022-08-26T23:39:39.800Z,5.55
2022-08-26T23:42:08.938Z,4.93
2022-08-26T23:47:07.219Z,5.00
2022-08-26T23:49:36.460Z,4.65
2022-08-26T23:52:26.050Z,5.03
2022-08-26T23:54:54.701Z,4.80
2022-08-26T23:57:26.197Z,5.03
2022-08-26T23:59:54.807Z,5.13
